createdAt,value
2023-04-17T00:09:53.350Z,98127.13
2023-04-17T00:19:55.549Z,98125.16
2023-04-17T00:29:58.038Z,98117.31
2023-04-17T00:40:00.317Z,98114.88
2023-04-17T00:50:03.194Z,98098.72
2023-04-17T01:00:06.501Z,98087.16
2023-04-17T01:10:09.451Z,98082.81
2023-04-17T01:20:12.256Z,98077.44
2023-04-17T01:30:14.678Z,98071.00
2023-04-17T01:40:16.898Z,98068.31
2023-04-17T01:50:19.102Z,98072.06
2023-04-17T02:00:21.473Z,98076.41
2023-04-17T02:10:23.596Z,98076.94
2023-04-17T02:20:26.050Z,98051.78
2023-04-17T02:30:28.466Z,98049.09
2023-04-17T02:40:30.640Z,98045.31
2023-04-17T02:50:33.056Z,98046.97
2023-04-17T03:00:35.309Z,98046.97
2023-04-17T03:10:37.705Z,98048.84
2023-04-17T03:20:39.870Z,98039.94
2023-04-17T03:30:42.166Z,98042.19
2023-04-17T03:40:44.657Z,98034.09
2023-04-17T03:50:46.938Z,98034.09
2023-04-17T04:00:50.536Z,98046.03
2023-04-17T04:10:52.683Z,98050.06
2023-04-17T04:20:54.811Z,98050.91
2023-04-17T04:30:59.079Z,98047.63
2023-04-17T04:41:06.628Z,98046.03
2023-04-17T04:51:09.100Z,98047.72
2023-04-17T05:01:12.623Z,98059.22
2023-04-17T05:11:15.584Z,98055.84
2023-04-17T05:21:17.875Z,98059.69
2023-04-17T05:31:21.122Z,98062.25
2023-04-17T05:41:23.540Z,98060.62
2023-04-17T05:51:26.617Z,98067.72
2023-04-17T06:01:30.355Z,98072.72
2023-04-17T06:11:32.832Z,98083.22
2023-04-17T06:21:35.152Z,98084.72
2023-04-17T06:31:37.660Z,98081.97
2023-04-17T06:41:40.049Z,98092.91
2023-04-17T06:51:48.139Z,98098.16
2023-04-17T07:01:51.017Z,98086.88
2023-04-17T07:11:53.561Z,98092.34
2023-04-17T07:21:56.824Z,98081.94
2023-04-17T07:31:59.438Z,98084.53
2023-04-17T07:42:06.689Z,98084.72
2023-04-17T07:52:09.176Z,98095.37
2023-04-17T08:02:11.835Z,98097.22
2023-04-17T08:12:14.333Z,98095.28
2023-04-17T08:22:16.893Z,98105.13
2023-04-17T08:32:20.487Z,98103.69
2023-04-17T08:42:23.192Z,98102.38
2023-04-17T08:52:25.575Z,98104.50
2023-04-17T09:02:28.016Z,98111.19
2023-04-17T09:12:30.474Z,98099.81
2023-04-17T09:22:33.235Z,98102.25
2023-04-17T09:32:35.886Z,98101.88
2023-04-17T09:42:54.110Z,98103.41
2023-04-17T09:52:56.871Z,98103.81
2023-04-17T10:02:59.846Z,98096.00
2023-04-17T10:13:03.699Z,98086.50
2023-04-17T10:23:26.343Z,98089.59
2023-04-17T10:33:29.082Z,98087.84
2023-04-17T10:43:32.154Z,98079.28
2023-04-17T10:53:41.276Z,98078.59
2023-04-17T11:03:43.737Z,98074.91
2023-04-17T11:13:48.228Z,98067.03
2023-04-17T11:23:52.803Z,98053.19
2023-04-17T11:33:55.357Z,98050.19
2023-04-17T11:43:57.894Z,98043.72
2023-04-17T11:54:00.761Z,98039.88
2023-04-17T12:04:20.359Z,98042.00
2023-04-17T12:14:25.229Z,98043.91
2023-04-17T12:24:29.093Z,98040.69
2023-04-17T12:34:31.746Z,98034.59
2023-04-17T12:44:34.368Z,98026.06
2023-04-17T12:54:36.723Z,98033.56
2023-04-17T13:04:39.166Z,98013.44
2023-04-17T13:14:42.297Z,97995.56
2023-04-17T13:24:45.035Z,97983.97
2023-04-17T13:34:47.774Z,97991.88
2023-04-17T13:44:50.333Z,97978.25
2023-04-17T13:54:52.648Z,97974.44
2023-04-17T14:04:55.283Z,97970.72
2023-04-17T14:14:58.333Z,97969.53
2023-04-17T14:25:00.801Z,97966.91
2023-04-17T14:35:03.627Z,97964.47
2023-04-17T14:45:06.510Z,97959.53
2023-04-17T14:55:09.331Z,97949.03
2023-04-17T15:05:11.994Z,97941.16
2023-04-17T15:15:14.771Z,97944.81
2023-04-17T15:25:17.090Z,97943.69
2023-04-17T15:35:19.526Z,97941.03
2023-04-17T15:45:22.244Z,97945.34
2023-04-17T15:55:24.967Z,97946.66
2023-04-17T16:05:27.870Z,97950.69
2023-04-17T16:15:30.798Z,97958.69
2023-04-17T16:25:33.182Z,97970.72
2023-04-17T16:35:36.710Z,97965.13
2023-04-17T16:45:39.231Z,97961.88
2023-04-17T16:55:41.873Z,97949.97
2023-04-17T17:05:44.644Z,97956.41
2023-04-17T17:15:47.047Z,97972.06
2023-04-17T17:25:49.532Z,97972.06
2023-04-17T17:35:51.875Z,97982.88
2023-04-17T17:45:54.587Z,97984.25
2023-04-17T17:55:57.950Z,97984.50
2023-04-17T18:06:00.997Z,97984.69
2023-04-17T18:16:03.869Z,97978.75
2023-04-17T18:26:06.516Z,98000.66
2023-04-17T18:36:09.254Z,98008.34
2023-04-17T18:46:11.619Z,98007.62
2023-04-17T18:56:15.430Z,98002.66
2023-04-17T19:06:17.623Z,98019.94
2023-04-17T19:16:20.226Z,98021.56
2023-04-17T19:26:23.826Z,98017.25
2023-04-17T19:36:27.751Z,98021.56
2023-04-17T19:46:30.379Z,98027.37
2023-04-17T19:56:32.709Z,98018.75
2023-04-17T20:06:35.304Z,98012.16
2023-04-17T20:16:37.559Z,97997.34
2023-04-17T20:26:40.130Z,98011.63
2023-04-17T20:36:42.309Z,98003.13
2023-04-17T20:46:44.974Z,98005.31
2023-04-17T20:56:47.561Z,98002.91
2023-04-17T21:06:49.822Z,97995.34
2023-04-17T21:16:54.862Z,97998.25
2023-04-17T21:26:59.115Z,97996.84
2023-04-17T21:37:05.200Z,97992.91
2023-04-17T21:47:07.371Z,97993.59
2023-04-17T21:57:09.885Z,97983.47
2023-04-17T22:07:12.357Z,97987.69
2023-04-17T22:17:15.237Z,97966.75
2023-04-17T22:27:17.366Z,97962.50
2023-04-17T22:37:19.600Z,97961.81
2023-04-17T22:47:22.258Z,97962.62
2023-04-17T22:57:24.456Z,97954.91
2023-04-17T23:07:26.755Z,97958.03
2023-04-17T23:17:29.038Z,97956.06
2023-04-17T23:27:32.354Z,97947.81
2023-04-17T23:37:34.561Z,97948.19
2023-04-17T23:47:37.104Z,97937.59
2023-04-17T23:57:39.144Z,97937.94
